sensor_id;sensor_type;location;lat;lon;timestamp;P1;durP1;ratioP1;P2;durP2;ratioP2
71366;SDS011;60030;52.274;8.040;2022-08-21T00:00:25;8.70;;;3.30;;
71366;SDS011;60030;52.274;8.040;2022-08-21T00:02:54;8.45;;;3.80;;
71366;SDS011;60030;52.274;8.040;2022-08-21T00:05:24;8.38;;;3.63;;
71366;SDS011;60030;52.274;8.040;2022-08-21T00:07:51;4.35;;;3.13;;
71366;SDS011;60030;52.274;8.040;2022-08-21T00:10:19;5.05;;;3.65;;
71366;SDS011;60030;52.274;8.040;2022-08-21T00:12:47;6.97;;;3.20;;
71366;SDS011;60030;52.274;8.040;2022-08-21T00:15:19;4.03;;;3.00;;
71366;SDS011;60030;52.274;8.040;2022-08-21T00:17:48;8.35;;;3.08;;
71366;SDS011;60030;52.274;8.040;2022-08-21T00:20:15;6.95;;;3.28;;
71366;SDS011;60030;52.274;8.040;2022-08-21T00:22:43;5.28;;;3.13;;
71366;SDS011;60030;52.274;8.040;2022-08-21T00:25:11;6.25;;;2.80;;
71366;SDS011;60030;52.274;8.040;2022-08-21T00:27:39;8.90;;;3.35;;
71366;SDS011;60030;52.274;8.040;2022-08-21T00:30:07;3.90;;;2.80;;
71366;SDS011;60030;52.274;8.040;2022-08-21T00:32:38;5.75;;;3.40;;
71366;SDS011;60030;52.274;8.040;2022-08-21T00:35:06;4.60;;;2.92;;
71366;SDS011;60030;52.274;8.040;2022-08-21T00:37:36;7.38;;;2.75;;
71366;SDS011;60030;52.274;8.040;2022-08-21T00:40:04;7.13;;;3.03;;
71366;SDS011;60030;52.274;8.040;2022-08-21T00:42:35;4.05;;;2.58;;
71366;SDS011;60030;52.274;8.040;2022-08-21T00:45:08;4.25;;;2.88;;
71366;SDS011;60030;52.274;8.040;2022-08-21T00:47:37;5.93;;;2.85;;
71366;SDS011;60030;52.274;8.040;2022-08-21T00:50:05;6.13;;;2.97;;
71366;SDS011;60030;52.274;8.040;2022-08-21T00:52:34;5.55;;;3.72;;
71366;SDS011;60030;52.274;8.040;2022-08-21T00:55:03;6.45;;;3.38;;
71366;SDS011;60030;52.274;8.040;2022-08-21T00:57:36;7.47;;;3.20;;
71366;SDS011;60030;52.274;8.040;2022-08-21T01:00:06;8.13;;;3.35;;
71366;SDS011;60030;52.274;8.040;2022-08-21T01:02:38;6.75;;;3.20;;
71366;SDS011;60030;52.274;8.040;2022-08-21T01:05:05;7.65;;;4.13;;
71366;SDS011;60030;52.274;8.040;2022-08-21T01:07:34;6.97;;;3.25;;
71366;SDS011;60030;52.274;8.040;2022-08-21T01:10:02;8.82;;;3.20;;
71366;SDS011;60030;52.274;8.040;2022-08-21T01:12:30;5.55;;;2.95;;
71366;SDS011;60030;52.274;8.040;2022-08-21T01:14:57;3.65;;;3.00;;
71366;SDS011;60030;52.274;8.040;2022-08-21T01:17:24;4.88;;;3.03;;
71366;SDS011;60030;52.274;8.040;2022-08-21T01:19:58;7.40;;;3.22;;
71366;SDS011;60030;52.274;8.040;2022-08-21T01:22:26;6.38;;;2.85;;
71366;SDS011;60030;52.274;8.040;2022-08-21T01:24:53;7.25;;;3.00;;
71366;SDS011;60030;52.274;8.040;2022-08-21T01:27:20;5.45;;;2.95;;
71366;SDS011;60030;52.274;8.040;2022-08-21T01:29:50;6.80;;;3.15;;
71366;SDS011;60030;52.274;8.040;2022-08-21T01:32:20;8.00;;;3.10;;
71366;SDS011;60030;52.274;8.040;2022-08-21T01:34:48;7.40;;;3.08;;
71366;SDS011;60030;52.274;8.040;2022-08-21T01:37:17;7.28;;;2.95;;
71366;SDS011;60030;52.274;8.040;2022-08-21T01:39:47;8.88;;;3.38;;
71366;SDS011;60030;52.274;8.040;2022-08-21T01:42:15;5.68;;;3.50;;
71366;SDS011;60030;52.274;8.040;2022-08-21T01:44:42;4.95;;;3.00;;
71366;SDS011;60030;52.274;8.040;2022-08-21T01:47:11;9.23;;;3.33;;
71366;SDS011;60030;52.274;8.040;2022-08-21T01:49:39;4.43;;;3.03;;
71366;SDS011;60030;52.274;8.040;2022-08-21T01:52:07;9.13;;;3.20;;
71366;SDS011;60030;52.274;8.040;2022-08-21T01:54:36;5.03;;;2.53;;
71366;SDS011;60030;52.274;8.040;2022-08-21T01:57:05;6.45;;;2.95;;
71366;SDS011;60030;52.274;8.040;2022-08-21T01:59:32;5.57;;;2.80;;
71366;SDS011;60030;52.274;8.040;2022-08-21T02:02:00;6.68;;;3.30;;
71366;SDS011;60030;52.274;8.040;2022-08-21T02:04:27;6.35;;;3.10;;
71366;SDS011;60030;52.274;8.040;2022-08-21T02:06:54;6.25;;;2.60;;
71366;SDS011;60030;52.274;8.040;2022-08-21T02:09:21;7.05;;;2.70;;
71366;SDS011;60030;52.274;8.040;2022-08-21T02:11:48;4.88;;;2.67;;
71366;SDS011;60030;52.274;8.040;2022-08-21T02:14:16;7.53;;;2.92;;
71366;SDS011;60030;52.274;8.040;2022-08-21T02:16:44;6.80;;;3.05;;
71366;SDS011;60030;52.274;8.040;2022-08-21T02:19:12;5.60;;;2.97;;
71366;SDS011;60030;52.274;8.040;2022-08-21T02:21:41;5.60;;;2.80;;
71366;SDS011;60030;52.274;8.040;2022-08-21T02:24:08;3.83;;;2.70;;
71366;SDS011;60030;52.274;8.040;2022-08-21T02:26:36;4.90;;;2.90;;
71366;SDS011;60030;52.274;8.040;2022-08-21T02:29:03;7.20;;;3.20;;
71366;SDS011;60030;52.274;8.040;2022-08-21T02:31:32;6.72;;;2.78;;
71366;SDS011;60030;52.274;8.040;2022-08-21T02:33:59;5.68;;;2.88;;
71366;SDS011;60030;52.274;8.040;2022-08-21T02:36:26;5.13;;;2.78;;
71366;SDS011;60030;52.274;8.040;2022-08-21T02:38:54;5.60;;;2.38;;
71366;SDS011;60030;52.274;8.040;2022-08-21T02:41:21;7.32;;;3.28;;
71366;SDS011;60030;52.274;8.040;2022-08-21T02:43:48;7.18;;;3.50;;
71366;SDS011;60030;52.274;8.040;2022-08-21T02:46:16;6.28;;;3.08;;
71366;SDS011;60030;52.274;8.040;2022-08-21T02:48:47;7.45;;;3.45;;
71366;SDS011;60030;52.274;8.040;2022-08-21T02:51:15;5.28;;;2.80;;
71366;SDS011;60030;52.274;8.040;2022-08-21T02:53:44;8.00;;;3.25;;
71366;SDS011;60030;52.274;8.040;2022-08-21T02:56:13;6.18;;;3.88;;
71366;SDS011;60030;52.274;8.040;2022-08-21T02:58:43;6.22;;;3.08;;
71366;SDS011;60030;52.274;8.040;2022-08-21T03:01:12;5.88;;;2.80;;
71366;SDS011;60030;52.274;8.040;2022-08-21T03:03:40;5.63;;;2.92;;
71366;SDS011;60030;52.274;8.040;2022-08-21T03:06:10;5.57;;;2.78;;
71366;SDS011;60030;52.274;8.040;2022-08-21T03:08:39;8.27;;;3.08;;
71366;SDS011;60030;52.274;8.040;2022-08-21T03:11:07;8.45;;;3.47;;
71366;SDS011;60030;52.274;8.040;2022-08-21T03:13:34;5.05;;;2.90;;
71366;SDS011;60030;52.274;8.040;2022-08-21T03:16:01;6.00;;;2.80;;
71366;SDS011;60030;52.274;8.040;2022-08-21T03:18:29;7.47;;;3.00;;
71366;SDS011;60030;52.274;8.040;2022-08-21T03:20:56;5.40;;;2.80;;
71366;SDS011;60030;52.274;8.040;2022-08-21T03:23:24;4.43;;;2.70;;
71366;SDS011;60030;52.274;8.040;2022-08-21T03:25:51;7.50;;;3.30;;
71366;SDS011;60030;52.274;8.040;2022-08-21T03:28:19;4.40;;;2.67;;
71366;SDS011;60030;52.274;8.040;2022-08-21T03:30:49;5.40;;;2.88;;
71366;SDS011;60030;52.274;8.040;2022-08-21T03:33:17;5.32;;;3.05;;
71366;SDS011;60030;52.274;8.040;2022-08-21T03:35:47;4.97;;;2.88;;
71366;SDS011;60030;52.274;8.040;2022-08-21T03:38:18;9.15;;;3.28;;
71366;SDS011;60030;52.274;8.040;2022-08-21T03:40:47;6.78;;;3.00;;
71366;SDS011;60030;52.274;8.040;2022-08-21T03:43:14;6.75;;;3.13;;
71366;SDS011;60030;52.274;8.040;2022-08-21T03:45:41;6.50;;;2.75;;
71366;SDS011;60030;52.274;8.040;2022-08-21T03:48:09;8.18;;;2.83;;
71366;SDS011;60030;52.274;8.040;2022-08-21T03:50:38;6.03;;;2.77;;
71366;SDS011;60030;52.274;8.040;2022-08-21T03:53:07;8.80;;;3.33;;
71366;SDS011;60030;52.274;8.040;2022-08-21T03:55:36;6.20;;;3.03;;
71366;SDS011;60030;52.274;8.040;2022-08-21T03:58:04;5.25;;;2.83;;
71366;SDS011;60030;52.274;8.040;2022-08-21T04:00:31;6.85;;;2.80;;
71366;SDS011;60030;52.274;8.040;2022-08-21T04:02:58;4.00;;;2.50;;
71366;SDS011;60030;52.274;8.040;2022-08-21T04:05:25;6.22;;;3.10;;
71366;SDS011;60030;52.274;8.040;2022-08-21T04:07:56;7.57;;;2.58;;
71366;SDS011;60030;52.274;8.040;2022-08-21T04:10:24;6.70;;;3.03;;
71366;SDS011;60030;52.274;8.040;2022-08-21T04:12:52;8.07;;;3.08;;
71366;SDS011;60030;52.274;8.040;2022-08-21T04:15:22;5.47;;;3.15;;
71366;SDS011;60030;52.274;8.040;2022-08-21T04:17:51;7.25;;;2.70;;
71366;SDS011;60030;52.274;8.040;2022-08-21T04:20:20;6.83;;;3.20;;
71366;SDS011;60030;52.274;8.040;2022-08-21T04:22:49;6.50;;;3.17;;
71366;SDS011;60030;52.274;8.040;2022-08-21T04:25:17;6.60;;;3.17;;
71366;SDS011;60030;52.274;8.040;2022-08-21T04:27:45;6.37;;;3.20;;
71366;SDS011;60030;52.274;8.040;2022-08-21T04:30:13;5.27;;;3.13;;
71366;SDS011;60030;52.274;8.040;2022-08-21T04:32:43;7.63;;;2.80;;
71366;SDS011;60030;52.274;8.040;2022-08-21T04:35:12;5.33;;;2.87;;
71366;SDS011;60030;52.274;8.040;2022-08-21T04:37:41;5.43;;;2.87;;
71366;SDS011;60030;52.274;8.040;2022-08-21T04:40:09;7.50;;;3.37;;
71366;SDS011;60030;52.274;8.040;2022-08-21T04:42:41;3.50;;;2.65;;
71366;SDS011;60030;52.274;8.040;2022-08-21T04:45:15;4.93;;;3.20;;
71366;SDS011;60030;52.274;8.040;2022-08-21T04:47:46;7.73;;;3.13;;
71366;SDS011;60030;52.274;8.040;2022-08-21T04:50:15;6.67;;;3.27;;
71366;SDS011;60030;52.274;8.040;2022-08-21T04:52:55;6.67;;;3.40;;
71366;SDS011;60030;52.274;8.040;2022-08-21T04:55:23;12.37;;;3.17;;
71366;SDS011;60030;52.274;8.040;2022-08-21T04:57:52;3.73;;;2.70;;
71366;SDS011;60030;52.274;8.040;2022-08-21T05:00:20;6.03;;;2.83;;
71366;SDS011;60030;52.274;8.040;2022-08-21T05:02:51;6.17;;;3.00;;
71366;SDS011;60030;52.274;8.040;2022-08-21T05:05:24;9.10;;;3.53;;
71366;SDS011;60030;52.274;8.040;2022-08-21T05:07:51;3.40;;;3.10;;
71366;SDS011;60030;52.274;8.040;2022-08-21T05:10:19;6.80;;;3.00;;
71366;SDS011;60030;52.274;8.040;2022-08-21T05:12:47;5.87;;;3.03;;
71366;SDS011;60030;52.274;8.040;2022-08-21T05:15:14;10.20;;;3.03;;
71366;SDS011;60030;52.274;8.040;2022-08-21T05:17:42;4.97;;;2.50;;
71366;SDS011;60030;52.274;8.040;2022-08-21T05:20:12;9.10;;;3.03;;
71366;SDS011;60030;52.274;8.040;2022-08-21T05:22:40;6.27;;;3.30;;
71366;SDS011;60030;52.274;8.040;2022-08-21T05:25:08;4.90;;;2.83;;
71366;SDS011;60030;52.274;8.040;2022-08-21T05:27:36;7.10;;;2.70;;
71366;SDS011;60030;52.274;8.040;2022-08-21T05:30:05;5.87;;;3.00;;
71366;SDS011;60030;52.274;8.040;2022-08-21T05:32:34;6.60;;;3.20;;
71366;SDS011;60030;52.274;8.040;2022-08-21T05:35:04;7.37;;;3.40;;
71366;SDS011;60030;52.274;8.040;2022-08-21T05:37:34;7.77;;;3.67;;
71366;SDS011;60030;52.274;8.040;2022-08-21T05:40:02;6.93;;;3.10;;
71366;SDS011;60030;52.274;8.040;2022-08-21T05:42:30;6.50;;;3.47;;
71366;SDS011;60030;52.274;8.040;2022-08-21T05:44:57;6.60;;;3.28;;
71366;SDS011;60030;52.274;8.040;2022-08-21T05:47:25;6.70;;;3.13;;
71366;SDS011;60030;52.274;8.040;2022-08-21T05:49:52;8.52;;;2.85;;
71366;SDS011;60030;52.274;8.040;2022-08-21T05:52:19;6.60;;;3.23;;
71366;SDS011;60030;52.274;8.040;2022-08-21T05:54:48;8.07;;;2.80;;
71366;SDS011;60030;52.274;8.040;2022-08-21T05:57:19;10.38;;;3.40;;
71366;SDS011;60030;52.274;8.040;2022-08-21T05:59:46;6.47;;;3.00;;
71366;SDS011;60030;52.274;8.040;2022-08-21T06:02:13;7.87;;;3.80;;
71366;SDS011;60030;52.274;8.040;2022-08-21T06:04:40;5.93;;;3.08;;
71366;SDS011;60030;52.274;8.040;2022-08-21T06:07:07;7.85;;;3.47;;
71366;SDS011;60030;52.274;8.040;2022-08-21T06:09:34;6.03;;;2.95;;
71366;SDS011;60030;52.274;8.040;2022-08-21T06:12:05;9.85;;;3.58;;
71366;SDS011;60030;52.274;8.040;2022-08-21T06:14:33;7.97;;;3.50;;
71366;SDS011;60030;52.274;8.040;2022-08-21T06:17:02;5.40;;;3.07;;
71366;SDS011;60030;52.274;8.040;2022-08-21T06:19:29;8.10;;;3.50;;
71366;SDS011;60030;52.274;8.040;2022-08-21T06:21:57;6.57;;;2.97;;
71366;SDS011;60030;52.274;8.040;2022-08-21T06:24:24;6.82;;;2.92;;
71366;SDS011;60030;52.274;8.040;2022-08-21T06:26:52;8.27;;;3.80;;
71366;SDS011;60030;52.274;8.040;2022-08-21T06:29:21;7.03;;;3.65;;
71366;SDS011;60030;52.274;8.040;2022-08-21T06:31:49;7.45;;;3.33;;
71366;SDS011;60030;52.274;8.040;2022-08-21T06:34:17;11.00;;;6.03;;
71366;SDS011;60030;52.274;8.040;2022-08-21T06:36:44;10.88;;;5.22;;
71366;SDS011;60030;52.274;8.040;2022-08-21T06:39:11;8.10;;;3.45;;
71366;SDS011;60030;52.274;8.040;2022-08-21T06:41:39;6.82;;;3.63;;
71366;SDS011;60030;52.274;8.040;2022-08-21T06:44:06;9.13;;;3.78;;
71366;SDS011;60030;52.274;8.040;2022-08-21T06:46:35;7.60;;;3.60;;
71366;SDS011;60030;52.274;8.040;2022-08-21T06:49:02;6.82;;;3.25;;
71366;SDS011;60030;52.274;8.040;2022-08-21T06:51:29;10.43;;;3.40;;
71366;SDS011;60030;52.274;8.040;2022-08-21T06:53:56;5.75;;;3.33;;
71366;SDS011;60030;52.274;8.040;2022-08-21T06:56:23;7.88;;;3.33;;
71366;SDS011;60030;52.274;8.040;2022-08-21T06:58:51;7.65;;;3.05;;
71366;SDS011;60030;52.274;8.040;2022-08-21T07:01:18;6.00;;;2.97;;
71366;SDS011;60030;52.274;8.040;2022-08-21T07:03:48;8.00;;;3.05;;
71366;SDS011;60030;52.274;8.040;2022-08-21T07:06:15;12.68;;;3.05;;
71366;SDS011;60030;52.274;8.040;2022-08-21T07:08:42;3.47;;;2.88;;
71366;SDS011;60030;52.274;8.040;2022-08-21T07:11:11;4.50;;;2.50;;
71366;SDS011;60030;52.274;8.040;2022-08-21T07:13:40;6.70;;;2.65;;
71366;SDS011;60030;52.274;8.040;2022-08-21T07:16:07;4.50;;;2.35;;
71366;SDS011;60030;52.274;8.040;2022-08-21T07:18:35;6.32;;;2.92;;
71366;SDS011;60030;52.274;8.040;2022-08-21T07:21:05;7.15;;;2.92;;
71366;SDS011;60030;52.274;8.040;2022-08-21T07:23:34;8.75;;;2.33;;
71366;SDS011;60030;52.274;8.040;2022-08-21T07:26:04;4.60;;;2.53;;
71366;SDS011;60030;52.274;8.040;2022-08-21T07:28:31;6.70;;;2.80;;
71366;SDS011;60030;52.274;8.040;2022-08-21T07:30:59;4.60;;;2.00;;
71366;SDS011;60030;52.274;8.040;2022-08-21T07:33:29;6.38;;;1.88;;
71366;SDS011;60030;52.274;8.040;2022-08-21T07:35:58;5.07;;;2.20;;
71366;SDS011;60030;52.274;8.040;2022-08-21T07:38:27;6.15;;;3.05;;
71366;SDS011;60030;52.274;8.040;2022-08-21T07:40:54;5.53;;;3.10;;
71366;SDS011;60030;52.274;8.040;2022-08-21T07:43:24;8.05;;;2.65;;
71366;SDS011;60030;52.274;8.040;2022-08-21T07:45:51;5.65;;;2.35;;
71366;SDS011;60030;52.274;8.040;2022-08-21T07:48:19;5.43;;;2.55;;
71366;SDS011;60030;52.274;8.040;2022-08-21T07:50:47;4.40;;;2.35;;
71366;SDS011;60030;52.274;8.040;2022-08-21T07:53:14;2.72;;;1.80;;
71366;SDS011;60030;52.274;8.040;2022-08-21T07:55:43;6.78;;;2.22;;
71366;SDS011;60030;52.274;8.040;2022-08-21T07:58:10;6.32;;;1.90;;
71366;SDS011;60030;52.274;8.040;2022-08-21T08:00:38;2.92;;;1.70;;
71366;SDS011;60030;52.274;8.040;2022-08-21T08:03:06;5.93;;;2.22;;
71366;SDS011;60030;52.274;8.040;2022-08-21T08:05:33;6.55;;;1.98;;
71366;SDS011;60030;52.274;8.040;2022-08-21T08:08:02;11.35;;;2.58;;
71366;SDS011;60030;52.274;8.040;2022-08-21T08:10:29;5.90;;;2.55;;
71366;SDS011;60030;52.274;8.040;2022-08-21T08:12:58;6.05;;;2.00;;
71366;SDS011;60030;52.274;8.040;2022-08-21T08:15:25;5.95;;;2.30;;
71366;SDS011;60030;52.274;8.040;2022-08-21T08:17:54;5.80;;;2.42;;
71366;SDS011;60030;52.274;8.040;2022-08-21T08:20:22;6.88;;;2.63;;
71366;SDS011;60030;52.274;8.040;2022-08-21T08:22:51;6.43;;;3.83;;
71366;SDS011;60030;52.274;8.040;2022-08-21T08:25:19;6.43;;;2.38;;
71366;SDS011;60030;52.274;8.040;2022-08-21T08:27:48;5.53;;;2.75;;
71366;SDS011;60030;52.274;8.040;2022-08-21T08:30:18;7.72;;;2.25;;
71366;SDS011;60030;52.274;8.040;2022-08-21T08:32:47;4.25;;;1.98;;
71366;SDS011;60030;52.274;8.040;2022-08-21T08:35:14;7.20;;;2.00;;
71366;SDS011;60030;52.274;8.040;2022-08-21T08:37:42;3.92;;;2.03;;
71366;SDS011;60030;52.274;8.040;2022-08-21T08:40:11;5.78;;;2.22;;
71366;SDS011;60030;52.274;8.040;2022-08-21T08:42:40;5.13;;;2.47;;
71366;SDS011;60030;52.274;8.040;2022-08-21T08:45:08;6.90;;;2.60;;
71366;SDS011;60030;52.274;8.040;2022-08-21T08:47:40;8.55;;;2.20;;
71366;SDS011;60030;52.274;8.040;2022-08-21T08:50:11;6.22;;;2.63;;
71366;SDS011;60030;52.274;8.040;2022-08-21T08:52:43;5.47;;;2.70;;
71366;SDS011;60030;52.274;8.040;2022-08-21T08:55:15;5.10;;;2.90;;
71366;SDS011;60030;52.274;8.040;2022-08-21T08:57:46;6.53;;;3.95;;
71366;SDS011;60030;52.274;8.040;2022-08-21T09:00:16;7.85;;;3.22;;
71366;SDS011;60030;52.274;8.040;2022-08-21T09:02:47;5.28;;;3.65;;
71366;SDS011;60030;52.274;8.040;2022-08-21T09:05:22;6.60;;;3.20;;
71366;SDS011;60030;52.274;8.040;2022-08-21T09:07:57;5.90;;;3.13;;
71366;SDS011;60030;52.274;8.040;2022-08-21T09:10:43;5.55;;;3.47;;
71366;SDS011;60030;52.274;8.040;2022-08-21T09:13:19;6.82;;;3.47;;
71366;SDS011;60030;52.274;8.040;2022-08-21T09:15:53;5.57;;;3.38;;
71366;SDS011;60030;52.274;8.040;2022-08-21T09:18:33;7.72;;;3.10;;
71366;SDS011;60030;52.274;8.040;2022-08-21T09:21:10;7.57;;;3.30;;
71366;SDS011;60030;52.274;8.040;2022-08-21T09:23:47;10.43;;;4.00;;
71366;SDS011;60030;52.274;8.040;2022-08-21T09:26:22;11.02;;;3.78;;
71366;SDS011;60030;52.274;8.040;2022-08-21T09:28:52;7.95;;;4.03;;
71366;SDS011;60030;52.274;8.040;2022-08-21T09:31:22;9.68;;;4.60;;
71366;SDS011;60030;52.274;8.040;2022-08-21T09:33:58;10.45;;;4.18;;
71366;SDS011;60030;52.274;8.040;2022-08-21T09:36:29;6.35;;;3.85;;
71366;SDS011;60030;52.274;8.040;2022-08-21T09:39:02;5.88;;;4.10;;
71366;SDS011;60030;52.274;8.040;2022-08-21T09:41:30;9.80;;;3.50;;
71366;SDS011;60030;52.274;8.040;2022-08-21T09:43:59;5.72;;;3.50;;
71366;SDS011;60030;52.274;8.040;2022-08-21T09:46:26;7.03;;;3.88;;
71366;SDS011;60030;52.274;8.040;2022-08-21T09:48:56;6.35;;;3.25;;
71366;SDS011;60030;52.274;8.040;2022-08-21T09:51:27;8.20;;;3.75;;
71366;SDS011;60030;52.274;8.040;2022-08-21T09:53:57;7.78;;;3.10;;
71366;SDS011;60030;52.274;8.040;2022-08-21T09:56:37;6.32;;;3.22;;
71366;SDS011;60030;52.274;8.040;2022-08-21T09:59:26;8.82;;;3.53;;
71366;SDS011;60030;52.274;8.040;2022-08-21T10:01:57;5.78;;;3.78;;
71366;SDS011;60030;52.274;8.040;2022-08-21T10:04:30;6.15;;;3.38;;
71366;SDS011;60030;52.274;8.040;2022-08-21T10:07:08;8.18;;;3.45;;
71366;SDS011;60030;52.274;8.040;2022-08-21T10:09:36;9.02;;;3.47;;
71366;SDS011;60030;52.274;8.040;2022-08-21T10:12:08;7.38;;;3.30;;
71366;SDS011;60030;52.274;8.040;2022-08-21T10:14:44;7.43;;;3.60;;
71366;SDS011;60030;52.274;8.040;2022-08-21T10:17:17;8.63;;;3.35;;
71366;SDS011;60030;52.274;8.040;2022-08-21T10:19:59;5.93;;;3.42;;
71366;SDS011;60030;52.274;8.040;2022-08-21T10:22:33;6.35;;;3.10;;
71366;SDS011;60030;52.274;8.040;2022-08-21T10:25:11;6.70;;;3.10;;
71366;SDS011;60030;52.274;8.040;2022-08-21T10:27:46;5.78;;;3.30;;
71366;SDS011;60030;52.274;8.040;2022-08-21T10:30:23;7.13;;;3.63;;
71366;SDS011;60030;52.274;8.040;2022-08-21T10:33:03;4.78;;;3.83;;
71366;SDS011;60030;52.274;8.040;2022-08-21T10:35:54;6.57;;;3.63;;
71366;SDS011;60030;52.274;8.040;2022-08-21T10:38:38;6.43;;;3.83;;
71366;SDS011;60030;52.274;8.040;2022-08-21T10:41:24;6.13;;;3.35;;
71366;SDS011;60030;52.274;8.040;2022-08-21T10:44:04;8.77;;;4.05;;
71366;SDS011;60030;52.274;8.040;2022-08-21T10:46:42;7.47;;;4.10;;
71366;SDS011;60030;52.274;8.040;2022-08-21T10:49:21;5.40;;;3.53;;
71366;SDS011;60030;52.274;8.040;2022-08-21T10:51:56;8.50;;;3.60;;
71366;SDS011;60030;52.274;8.040;2022-08-21T10:54:41;9.20;;;3.80;;
71366;SDS011;60030;52.274;8.040;2022-08-21T10:57:16;6.28;;;3.42;;
71366;SDS011;60030;52.274;8.040;2022-08-21T10:59:53;6.70;;;3.83;;
71366;SDS011;60030;52.274;8.040;2022-08-21T11:02:26;6.63;;;3.75;;
71366;SDS011;60030;52.274;8.040;2022-08-21T11:04:59;11.38;;;3.60;;
71366;SDS011;60030;52.274;8.040;2022-08-21T11:07:34;8.63;;;3.33;;
71366;SDS011;60030;52.274;8.040;2022-08-21T11:10:05;6.05;;;4.00;;
71366;SDS011;60030;52.274;8.040;2022-08-21T11:12:40;7.15;;;3.85;;
71366;SDS011;60030;52.274;8.040;2022-08-21T11:15:23;8.35;;;4.00;;
71366;SDS011;60030;52.274;8.040;2022-08-21T11:17:58;7.85;;;4.38;;
71366;SDS011;60030;52.274;8.040;2022-08-21T11:20:31;9.02;;;4.75;;
71366;SDS011;60030;52.274;8.040;2022-08-21T11:23:07;6.05;;;4.13;;
71366;SDS011;60030;52.274;8.040;2022-08-21T11:25:41;7.60;;;3.60;;
71366;SDS011;60030;52.274;8.040;2022-08-21T11:28:13;6.90;;;3.75;;
71366;SDS011;60030;52.274;8.040;2022-08-21T11:30:47;6.80;;;3.17;;
71366;SDS011;60030;52.274;8.040;2022-08-21T11:33:32;8.32;;;3.75;;
71366;SDS011;60030;52.274;8.040;2022-08-21T11:36:12;6.40;;;2.97;;
71366;SDS011;60030;52.274;8.040;2022-08-21T11:38:46;4.80;;;2.92;;
71366;SDS011;60030;52.274;8.040;2022-08-21T11:41:23;4.38;;;2.50;;
71366;SDS011;60030;52.274;8.040;2022-08-21T11:43:56;4.97;;;2.30;;
71366;SDS011;60030;52.274;8.040;2022-08-21T11:46:31;5.93;;;2.65;;
71366;SDS011;60030;52.274;8.040;2022-08-21T11:49:11;8.38;;;3.60;;
71366;SDS011;60030;52.274;8.040;2022-08-21T11:51:56;7.32;;;2.92;;
71366;SDS011;60030;52.274;8.040;2022-08-21T11:54:31;5.90;;;2.67;;
71366;SDS011;60030;52.274;8.040;2022-08-21T11:57:04;3.90;;;2.42;;
71366;SDS011;60030;52.274;8.040;2022-08-21T11:59:36;5.03;;;2.70;;
71366;SDS011;60030;52.274;8.040;2022-08-21T12:02:09;5.72;;;2.60;;
71366;SDS011;60030;52.274;8.040;2022-08-21T12:04:44;6.15;;;2.42;;
71366;SDS011;60030;52.274;8.040;2022-08-21T12:07:15;4.03;;;1.67;;
71366;SDS011;60030;52.274;8.040;2022-08-21T12:09:56;4.13;;;1.50;;
71366;SDS011;60030;52.274;8.040;2022-08-21T12:12:27;3.83;;;1.63;;
71366;SDS011;60030;52.274;8.040;2022-08-21T12:15:07;4.38;;;1.80;;
71366;SDS011;60030;52.274;8.040;2022-08-21T12:17:50;4.25;;;1.75;;
71366;SDS011;60030;52.274;8.040;2022-08-21T12:20:23;3.88;;;1.88;;
71366;SDS011;60030;52.274;8.040;2022-08-21T12:23:03;3.35;;;1.63;;
71366;SDS011;60030;52.274;8.040;2022-08-21T12:25:37;4.45;;;1.60;;
71366;SDS011;60030;52.274;8.040;2022-08-21T12:28:07;4.07;;;1.23;;
71366;SDS011;60030;52.274;8.040;2022-08-21T12:30:36;4.05;;;1.88;;
71366;SDS011;60030;52.274;8.040;2022-08-21T12:33:05;3.83;;;1.60;;
71366;SDS011;60030;52.274;8.040;2022-08-21T12:35:47;3.75;;;1.45;;
71366;SDS011;60030;52.274;8.040;2022-08-21T12:38:17;3.80;;;1.48;;
71366;SDS011;60030;52.274;8.040;2022-08-21T12:40:49;3.70;;;1.48;;
71366;SDS011;60030;52.274;8.040;2022-08-21T12:43:19;2.97;;;1.30;;
71366;SDS011;60030;52.274;8.040;2022-08-21T12:45:50;2.85;;;1.08;;
71366;SDS011;60030;52.274;8.040;2022-08-21T12:48:18;3.85;;;1.27;;
71366;SDS011;60030;52.274;8.040;2022-08-21T12:50:49;1.73;;;1.08;;
71366;SDS011;60030;52.274;8.040;2022-08-21T12:53:21;2.50;;;1.17;;
71366;SDS011;60030;52.274;8.040;2022-08-21T12:55:54;2.28;;;1.20;;
71366;SDS011;60030;52.274;8.040;2022-08-21T12:58:26;3.17;;;1.23;;
71366;SDS011;60030;52.274;8.040;2022-08-21T13:00:54;3.05;;;1.00;;
71366;SDS011;60030;52.274;8.040;2022-08-21T13:03:25;2.10;;;1.00;;
71366;SDS011;60030;52.274;8.040;2022-08-21T13:05:53;2.15;;;0.85;;
71366;SDS011;60030;52.274;8.040;2022-08-21T13:08:21;1.83;;;0.90;;
71366;SDS011;60030;52.274;8.040;2022-08-21T13:10:56;3.22;;;1.15;;
71366;SDS011;60030;52.274;8.040;2022-08-21T13:13:27;2.80;;;1.30;;
71366;SDS011;60030;52.274;8.040;2022-08-21T13:15:59;3.25;;;1.40;;
71366;SDS011;60030;52.274;8.040;2022-08-21T13:18:30;5.75;;;1.20;;
71366;SDS011;60030;52.274;8.040;2022-08-21T13:21:03;1.10;;;0.88;;
71366;SDS011;60030;52.274;8.040;2022-08-21T13:23:32;1.15;;;1.05;;
71366;SDS011;60030;52.274;8.040;2022-08-21T13:26:11;1.95;;;1.20;;
71366;SDS011;60030;52.274;8.040;2022-08-21T13:28:39;2.28;;;1.10;;
71366;SDS011;60030;52.274;8.040;2022-08-21T13:31:07;2.95;;;1.27;;
71366;SDS011;60030;52.274;8.040;2022-08-21T13:33:36;3.40;;;1.45;;
71366;SDS011;60030;52.274;8.040;2022-08-21T13:36:08;2.65;;;1.92;;
71366;SDS011;60030;52.274;8.040;2022-08-21T13:38:38;2.55;;;1.42;;
71366;SDS011;60030;52.274;8.040;2022-08-21T13:41:10;3.90;;;2.13;;
71366;SDS011;60030;52.274;8.040;2022-08-21T13:43:46;2.63;;;1.40;;
71366;SDS011;60030;52.274;8.040;2022-08-21T13:46:16;2.95;;;1.45;;
71366;SDS011;60030;52.274;8.040;2022-08-21T13:48:45;2.40;;;1.27;;
71366;SDS011;60030;52.274;8.040;2022-08-21T13:51:12;3.00;;;1.30;;
71366;SDS011;60030;52.274;8.040;2022-08-21T13:53:44;1.52;;;1.20;;
71366;SDS011;60030;52.274;8.040;2022-08-21T13:56:24;1.92;;;1.10;;
71366;SDS011;60030;52.274;8.040;2022-08-21T13:58:54;3.20;;;1.58;;
71366;SDS011;60030;52.274;8.040;2022-08-21T14:01:22;3.85;;;1.50;;
71366;SDS011;60030;52.274;8.040;2022-08-21T14:03:55;2.42;;;1.05;;
71366;SDS011;60030;52.274;8.040;2022-08-21T14:06:27;4.15;;;1.40;;
71366;SDS011;60030;52.274;8.040;2022-08-21T14:09:00;2.80;;;1.50;;
71366;SDS011;60030;52.274;8.040;2022-08-21T14:11:48;2.70;;;1.42;;
71366;SDS011;60030;52.274;8.040;2022-08-21T14:14:17;5.65;;;1.42;;
71366;SDS011;60030;52.274;8.040;2022-08-21T14:16:52;2.00;;;1.25;;
71366;SDS011;60030;52.274;8.040;2022-08-21T14:19:22;3.40;;;1.58;;
71366;SDS011;60030;52.274;8.040;2022-08-21T14:21:51;4.68;;;1.65;;
71366;SDS011;60030;52.274;8.040;2022-08-21T14:24:26;2.92;;;1.40;;
71366;SDS011;60030;52.274;8.040;2022-08-21T14:26:57;6.85;;;1.45;;
71366;SDS011;60030;52.274;8.040;2022-08-21T14:29:32;2.22;;;1.30;;
71366;SDS011;60030;52.274;8.040;2022-08-21T14:32:00;2.45;;;1.35;;
71366;SDS011;60030;52.274;8.040;2022-08-21T14:34:36;3.30;;;1.30;;
71366;SDS011;60030;52.274;8.040;2022-08-21T14:37:03;3.28;;;1.50;;
71366;SDS011;60030;52.274;8.040;2022-08-21T14:39:30;2.50;;;1.33;;
71366;SDS011;60030;52.274;8.040;2022-08-21T14:41:58;5.65;;;1.98;;
71366;SDS011;60030;52.274;8.040;2022-08-21T14:44:26;2.78;;;1.40;;
71366;SDS011;60030;52.274;8.040;2022-08-21T14:46:53;1.50;;;1.20;;
71366;SDS011;60030;52.274;8.040;2022-08-21T14:49:21;5.45;;;2.10;;
71366;SDS011;60030;52.274;8.040;2022-08-21T14:51:51;2.17;;;1.20;;
71366;SDS011;60030;52.274;8.040;2022-08-21T14:54:22;4.82;;;1.60;;
71366;SDS011;60030;52.274;8.040;2022-08-21T14:56:49;4.57;;;1.73;;
71366;SDS011;60030;52.274;8.040;2022-08-21T14:59:18;2.58;;;1.30;;
71366;SDS011;60030;52.274;8.040;2022-08-21T15:01:46;1.98;;;1.23;;
71366;SDS011;60030;52.274;8.040;2022-08-21T15:04:14;3.75;;;1.30;;
71366;SDS011;60030;52.274;8.040;2022-08-21T15:06:41;3.20;;;1.33;;